sensor_id;sensor_type;location;lat;lon;timestamp;P1;durP1;ratioP1;P2;durP2;ratioP2
68744;SDS011;73143;45.456;11.064;2023-12-14T00:00:28;36.00;;;10.50;;
68744;SDS011;73143;45.456;11.064;2023-12-14T00:03:05;24.00;;;11.40;;
68744;SDS011;73143;45.456;11.064;2023-12-14T00:05:42;22.10;;;11.00;;
68744;SDS011;73143;45.456;11.064;2023-12-14T00:08:20;39.40;;;11.50;;
68744;SDS011;73143;45.456;11.064;2023-12-14T00:10:59;36.10;;;12.20;;
68744;SDS011;73143;45.456;11.064;2023-12-14T00:13:43;37.70;;;11.70;;
68744;SDS011;73143;45.456;11.064;2023-12-14T00:16:20;36.40;;;11.50;;
68744;SDS011;73143;45.456;11.064;2023-12-14T00:18:57;37.60;;;12.90;;
68744;SDS011;73143;45.456;11.064;2023-12-14T00:21:35;52.80;;;11.20;;
68744;SDS011;73143;45.456;11.064;2023-12-14T00:24:12;66.50;;;11.90;;
68744;SDS011;73143;45.456;11.064;2023-12-14T00:26:50;57.40;;;12.10;;
68744;SDS011;73143;45.456;11.064;2023-12-14T00:29:27;43.50;;;10.30;;
68744;SDS011;73143;45.456;11.064;2023-12-14T00:32:05;54.30;;;11.20;;
68744;SDS011;73143;45.456;11.064;2023-12-14T00:34:44;60.50;;;11.60;;
68744;SDS011;73143;45.456;11.064;2023-12-14T00:37:21;36.10;;;10.80;;
68744;SDS011;73143;45.456;11.064;2023-12-14T00:39:59;37.10;;;11.30;;
68744;SDS011;73143;45.456;11.064;2023-12-14T00:42:36;27.10;;;10.60;;
68744;SDS011;73143;45.456;11.064;2023-12-14T00:45:13;16.60;;;10.70;;
68744;SDS011;73143;45.456;11.064;2023-12-14T00:47:51;25.60;;;10.60;;
68744;SDS011;73143;45.456;11.064;2023-12-14T00:50:29;36.80;;;9.90;;
68744;SDS011;73143;45.456;11.064;2023-12-14T00:53:06;23.70;;;9.40;;
68744;SDS011;73143;45.456;11.064;2023-12-14T00:55:43;14.00;;;9.20;;
68744;SDS011;73143;45.456;11.064;2023-12-14T00:58:20;13.30;;;9.80;;
68744;SDS011;73143;45.456;11.064;2023-12-14T01:00:58;13.30;;;9.20;;
68744;SDS011;73143;45.456;11.064;2023-12-14T01:03:35;11.80;;;8.60;;
68744;SDS011;73143;45.456;11.064;2023-12-14T01:06:12;12.90;;;9.30;;
68744;SDS011;73143;45.456;11.064;2023-12-14T01:08:50;13.00;;;8.90;;
68744;SDS011;73143;45.456;11.064;2023-12-14T01:11:28;12.40;;;8.90;;
68744;SDS011;73143;45.456;11.064;2023-12-14T01:14:05;10.80;;;8.70;;
68744;SDS011;73143;45.456;11.064;2023-12-14T01:16:43;10.40;;;8.20;;
68744;SDS011;73143;45.456;11.064;2023-12-14T01:19:20;9.90;;;8.10;;
68744;SDS011;73143;45.456;11.064;2023-12-14T01:21:58;11.70;;;9.00;;
68744;SDS011;73143;45.456;11.064;2023-12-14T01:24:35;11.80;;;9.00;;
68744;SDS011;73143;45.456;11.064;2023-12-14T01:27:13;11.80;;;8.60;;
68744;SDS011;73143;45.456;11.064;2023-12-14T01:29:50;12.00;;;8.80;;
68744;SDS011;73143;45.456;11.064;2023-12-14T01:32:27;13.20;;;9.50;;
68744;SDS011;73143;45.456;11.064;2023-12-14T01:35:06;12.60;;;9.40;;
68744;SDS011;73143;45.456;11.064;2023-12-14T01:37:44;11.70;;;8.90;;
68744;SDS011;73143;45.456;11.064;2023-12-14T01:40:23;12.20;;;9.20;;
68744;SDS011;73143;45.456;11.064;2023-12-14T01:43:10;11.10;;;8.30;;
68744;SDS011;73143;45.456;11.064;2023-12-14T01:45:47;9.60;;;7.90;;
68744;SDS011;73143;45.456;11.064;2023-12-14T01:48:24;10.30;;;8.60;;
68744;SDS011;73143;45.456;11.064;2023-12-14T01:51:01;11.10;;;8.70;;
68744;SDS011;73143;45.456;11.064;2023-12-14T01:53:39;10.60;;;8.80;;
68744;SDS011;73143;45.456;11.064;2023-12-14T01:56:16;11.60;;;8.70;;
68744;SDS011;73143;45.456;11.064;2023-12-14T01:58:54;11.90;;;8.40;;
68744;SDS011;73143;45.456;11.064;2023-12-14T02:01:36;12.20;;;8.90;;
68744;SDS011;73143;45.456;11.064;2023-12-14T02:04:16;11.50;;;8.50;;
68744;SDS011;73143;45.456;11.064;2023-12-14T02:06:54;11.70;;;9.20;;
68744;SDS011;73143;45.456;11.064;2023-12-14T02:09:31;10.90;;;9.30;;
68744;SDS011;73143;45.456;11.064;2023-12-14T02:12:10;10.30;;;8.50;;
68744;SDS011;73143;45.456;11.064;2023-12-14T02:14:49;10.90;;;8.90;;
68744;SDS011;73143;45.456;11.064;2023-12-14T02:17:27;12.20;;;8.90;;
68744;SDS011;73143;45.456;11.064;2023-12-14T02:20:06;11.90;;;8.60;;
68744;SDS011;73143;45.456;11.064;2023-12-14T02:22:53;11.00;;;8.90;;
68744;SDS011;73143;45.456;11.064;2023-12-14T02:25:31;10.70;;;8.70;;
68744;SDS011;73143;45.456;11.064;2023-12-14T02:28:08;13.50;;;8.60;;
68744;SDS011;73143;45.456;11.064;2023-12-14T02:30:45;12.10;;;9.40;;
68744;SDS011;73143;45.456;11.064;2023-12-14T02:33:22;12.30;;;8.80;;
68744;SDS011;73143;45.456;11.064;2023-12-14T02:36:00;11.50;;;9.40;;
68744;SDS011;73143;45.456;11.064;2023-12-14T02:38:39;11.80;;;9.40;;
68744;SDS011;73143;45.456;11.064;2023-12-14T02:41:17;12.20;;;9.80;;
68744;SDS011;73143;45.456;11.064;2023-12-14T02:43:54;11.80;;;9.20;;
68744;SDS011;73143;45.456;11.064;2023-12-14T02:46:31;11.70;;;8.70;;
68744;SDS011;73143;45.456;11.064;2023-12-14T02:49:08;11.50;;;7.80;;
68744;SDS011;73143;45.456;11.064;2023-12-14T02:51:45;10.40;;;8.00;;
68744;SDS011;73143;45.456;11.064;2023-12-14T02:54:22;11.10;;;7.60;;
68744;SDS011;73143;45.456;11.064;2023-12-14T02:56:59;10.70;;;8.10;;
68744;SDS011;73143;45.456;11.064;2023-12-14T02:59:37;9.70;;;7.80;;
68744;SDS011;73143;45.456;11.064;2023-12-14T03:02:14;10.10;;;8.10;;
68744;SDS011;73143;45.456;11.064;2023-12-14T03:04:50;10.80;;;8.70;;
68744;SDS011;73143;45.456;11.064;2023-12-14T03:07:28;12.20;;;9.40;;
68744;SDS011;73143;45.456;11.064;2023-12-14T03:10:09;11.70;;;9.80;;
68744;SDS011;73143;45.456;11.064;2023-12-14T03:12:46;9.70;;;7.90;;
68744;SDS011;73143;45.456;11.064;2023-12-14T03:15:23;10.40;;;8.60;;
68744;SDS011;73143;45.456;11.064;2023-12-14T03:18:00;10.30;;;8.20;;
68744;SDS011;73143;45.456;11.064;2023-12-14T03:20:37;17.20;;;10.00;;
68744;SDS011;73143;45.456;11.064;2023-12-14T03:23:14;25.70;;;15.30;;
68744;SDS011;73143;45.456;11.064;2023-12-14T03:25:51;22.70;;;14.30;;
68744;SDS011;73143;45.456;11.064;2023-12-14T03:28:29;20.50;;;13.10;;
68744;SDS011;73143;45.456;11.064;2023-12-14T03:31:07;15.50;;;10.90;;
68744;SDS011;73143;45.456;11.064;2023-12-14T03:33:46;16.50;;;11.20;;
68744;SDS011;73143;45.456;11.064;2023-12-14T03:36:22;15.40;;;10.20;;
68744;SDS011;73143;45.456;11.064;2023-12-14T03:39:00;11.30;;;8.90;;
68744;SDS011;73143;45.456;11.064;2023-12-14T03:41:36;10.80;;;8.60;;
68744;SDS011;73143;45.456;11.064;2023-12-14T03:44:14;9.80;;;7.60;;
68744;SDS011;73143;45.456;11.064;2023-12-14T03:46:51;9.80;;;7.40;;
68744;SDS011;73143;45.456;11.064;2023-12-14T03:49:30;11.70;;;8.10;;
68744;SDS011;73143;45.456;11.064;2023-12-14T03:52:12;11.60;;;7.80;;
68744;SDS011;73143;45.456;11.064;2023-12-14T03:54:49;9.90;;;8.00;;
68744;SDS011;73143;45.456;11.064;2023-12-14T03:57:26;11.90;;;9.10;;
68744;SDS011;73143;45.456;11.064;2023-12-14T04:00:04;14.10;;;9.70;;
68744;SDS011;73143;45.456;11.064;2023-12-14T04:02:45;13.80;;;9.90;;
68744;SDS011;73143;45.456;11.064;2023-12-14T04:05:22;16.80;;;11.70;;
68744;SDS011;73143;45.456;11.064;2023-12-14T04:08:00;16.80;;;11.40;;
68744;SDS011;73143;45.456;11.064;2023-12-14T04:10:36;15.80;;;11.70;;
68744;SDS011;73143;45.456;11.064;2023-12-14T04:13:14;17.20;;;11.50;;
68744;SDS011;73143;45.456;11.064;2023-12-14T04:15:51;14.30;;;10.20;;
68744;SDS011;73143;45.456;11.064;2023-12-14T04:18:28;15.40;;;10.40;;
68744;SDS011;73143;45.456;11.064;2023-12-14T04:21:06;15.60;;;10.00;;
68744;SDS011;73143;45.456;11.064;2023-12-14T04:23:44;14.40;;;9.60;;
68744;SDS011;73143;45.456;11.064;2023-12-14T04:26:21;28.40;;;12.40;;
68744;SDS011;73143;45.456;11.064;2023-12-14T04:28:59;24.00;;;14.40;;
68744;SDS011;73143;45.456;11.064;2023-12-14T04:31:37;23.00;;;14.00;;
68744;SDS011;73143;45.456;11.064;2023-12-14T04:34:14;24.70;;;13.80;;
68744;SDS011;73143;45.456;11.064;2023-12-14T04:36:52;22.00;;;13.20;;
68744;SDS011;73143;45.456;11.064;2023-12-14T04:39:31;18.90;;;12.90;;
68744;SDS011;73143;45.456;11.064;2023-12-14T04:42:09;18.40;;;12.30;;
68744;SDS011;73143;45.456;11.064;2023-12-14T04:44:46;19.30;;;11.80;;
68744;SDS011;73143;45.456;11.064;2023-12-14T04:47:23;14.40;;;10.00;;
68744;SDS011;73143;45.456;11.064;2023-12-14T04:50:01;16.10;;;10.80;;
68744;SDS011;73143;45.456;11.064;2023-12-14T04:52:40;11.10;;;8.50;;
68744;SDS011;73143;45.456;11.064;2023-12-14T04:55:17;11.90;;;8.60;;
68744;SDS011;73143;45.456;11.064;2023-12-14T04:57:55;11.90;;;9.10;;
68744;SDS011;73143;45.456;11.064;2023-12-14T05:00:32;10.60;;;7.70;;
68744;SDS011;73143;45.456;11.064;2023-12-14T05:03:09;9.90;;;8.00;;
68744;SDS011;73143;45.456;11.064;2023-12-14T05:05:47;10.30;;;7.30;;
68744;SDS011;73143;45.456;11.064;2023-12-14T05:08:24;10.80;;;7.80;;
68744;SDS011;73143;45.456;11.064;2023-12-14T05:11:02;10.70;;;7.20;;
68744;SDS011;73143;45.456;11.064;2023-12-14T05:13:40;8.10;;;6.50;;
68744;SDS011;73143;45.456;11.064;2023-12-14T05:16:18;8.60;;;6.40;;
68744;SDS011;73143;45.456;11.064;2023-12-14T05:18:58;8.10;;;6.20;;
68744;SDS011;73143;45.456;11.064;2023-12-14T05:21:35;7.00;;;5.10;;
68744;SDS011;73143;45.456;11.064;2023-12-14T05:24:12;8.50;;;6.00;;
68744;SDS011;73143;45.456;11.064;2023-12-14T05:26:49;8.70;;;5.90;;
68744;SDS011;73143;45.456;11.064;2023-12-14T05:29:27;10.50;;;5.70;;
68744;SDS011;73143;45.456;11.064;2023-12-14T05:32:06;8.30;;;5.90;;
68744;SDS011;73143;45.456;11.064;2023-12-14T05:34:43;8.00;;;6.10;;
68744;SDS011;73143;45.456;11.064;2023-12-14T05:37:20;8.10;;;5.80;;
68744;SDS011;73143;45.456;11.064;2023-12-14T05:39:57;7.90;;;5.70;;
68744;SDS011;73143;45.456;11.064;2023-12-14T05:42:34;10.50;;;6.00;;
68744;SDS011;73143;45.456;11.064;2023-12-14T05:45:12;9.90;;;5.90;;
68744;SDS011;73143;45.456;11.064;2023-12-14T05:47:50;7.80;;;5.10;;
68744;SDS011;73143;45.456;11.064;2023-12-14T05:50:27;6.90;;;5.10;;
68744;SDS011;73143;45.456;11.064;2023-12-14T05:53:03;8.10;;;5.30;;
68744;SDS011;73143;45.456;11.064;2023-12-14T05:55:41;10.60;;;7.30;;
68744;SDS011;73143;45.456;11.064;2023-12-14T05:58:18;12.90;;;8.30;;
68744;SDS011;73143;45.456;11.064;2023-12-14T06:00:55;12.10;;;7.20;;
68744;SDS011;73143;45.456;11.064;2023-12-14T06:03:32;10.60;;;7.20;;
68744;SDS011;73143;45.456;11.064;2023-12-14T06:06:10;10.10;;;7.20;;
68744;SDS011;73143;45.456;11.064;2023-12-14T06:08:49;14.00;;;7.90;;
68744;SDS011;73143;45.456;11.064;2023-12-14T06:11:26;14.40;;;9.00;;
68744;SDS011;73143;45.456;11.064;2023-12-14T06:14:02;15.00;;;9.30;;
68744;SDS011;73143;45.456;11.064;2023-12-14T06:16:40;21.60;;;9.30;;
68744;SDS011;73143;45.456;11.064;2023-12-14T06:19:18;14.70;;;9.50;;
68744;SDS011;73143;45.456;11.064;2023-12-14T06:21:55;21.00;;;10.50;;
68744;SDS011;73143;45.456;11.064;2023-12-14T06:24:32;19.30;;;9.50;;
68744;SDS011;73143;45.456;11.064;2023-12-14T06:27:09;33.10;;;10.30;;
68744;SDS011;73143;45.456;11.064;2023-12-14T06:29:47;19.90;;;10.00;;
68744;SDS011;73143;45.456;11.064;2023-12-14T06:32:24;40.30;;;11.00;;
68744;SDS011;73143;45.456;11.064;2023-12-14T06:35:00;32.90;;;9.70;;
68744;SDS011;73143;45.456;11.064;2023-12-14T06:37:38;38.20;;;11.10;;
68744;SDS011;73143;45.456;11.064;2023-12-14T06:40:16;27.80;;;10.10;;
68744;SDS011;73143;45.456;11.064;2023-12-14T06:42:53;18.70;;;10.30;;
68744;SDS011;73143;45.456;11.064;2023-12-14T06:45:30;19.90;;;10.40;;
68744;SDS011;73143;45.456;11.064;2023-12-14T06:48:08;24.50;;;11.00;;
68744;SDS011;73143;45.456;11.064;2023-12-14T06:50:46;25.50;;;12.10;;
68744;SDS011;73143;45.456;11.064;2023-12-14T06:53:23;38.20;;;12.50;;
68744;SDS011;73143;45.456;11.064;2023-12-14T06:56:02;19.80;;;10.40;;
68744;SDS011;73143;45.456;11.064;2023-12-14T06:58:44;24.10;;;11.50;;
68744;SDS011;73143;45.456;11.064;2023-12-14T07:01:22;16.90;;;10.80;;
68744;SDS011;73143;45.456;11.064;2023-12-14T07:03:59;23.30;;;11.70;;
68744;SDS011;73143;45.456;11.064;2023-12-14T07:06:36;30.40;;;11.30;;
68744;SDS011;73143;45.456;11.064;2023-12-14T07:09:13;24.40;;;10.70;;
68744;SDS011;73143;45.456;11.064;2023-12-14T07:11:51;26.20;;;12.50;;
68744;SDS011;73143;45.456;11.064;2023-12-14T07:14:28;39.10;;;13.00;;
68744;SDS011;73143;45.456;11.064;2023-12-14T07:17:07;28.80;;;12.00;;
68744;SDS011;73143;45.456;11.064;2023-12-14T07:19:45;30.40;;;13.30;;
68744;SDS011;73143;45.456;11.064;2023-12-14T07:22:22;32.70;;;11.70;;
68744;SDS011;73143;45.456;11.064;2023-12-14T07:24:59;34.10;;;13.60;;
68744;SDS011;73143;45.456;11.064;2023-12-14T07:27:36;31.70;;;13.30;;
68744;SDS011;73143;45.456;11.064;2023-12-14T07:30:16;32.50;;;12.90;;
68744;SDS011;73143;45.456;11.064;2023-12-14T07:32:54;40.00;;;14.10;;
68744;SDS011;73143;45.456;11.064;2023-12-14T07:35:31;27.00;;;13.70;;
68744;SDS011;73143;45.456;11.064;2023-12-14T07:38:07;26.50;;;13.60;;
68744;SDS011;73143;45.456;11.064;2023-12-14T07:40:43;22.70;;;13.80;;
68744;SDS011;73143;45.456;11.064;2023-12-14T07:43:22;23.50;;;14.20;;
68744;SDS011;73143;45.456;11.064;2023-12-14T07:45:59;28.40;;;15.30;;
68744;SDS011;73143;45.456;11.064;2023-12-14T07:48:37;25.70;;;13.40;;
68744;SDS011;73143;45.456;11.064;2023-12-14T07:51:14;33.50;;;13.00;;
68744;SDS011;73143;45.456;11.064;2023-12-14T07:53:51;22.80;;;13.00;;
68744;SDS011;73143;45.456;11.064;2023-12-14T07:56:28;31.50;;;13.90;;
68744;SDS011;73143;45.456;11.064;2023-12-14T07:59:07;22.20;;;13.40;;
68744;SDS011;73143;45.456;11.064;2023-12-14T08:01:44;21.40;;;12.50;;
68744;SDS011;73143;45.456;11.064;2023-12-14T08:04:21;26.20;;;14.00;;
68744;SDS011;73143;45.456;11.064;2023-12-14T08:06:58;26.90;;;13.80;;
68744;SDS011;73143;45.456;11.064;2023-12-14T08:09:35;18.40;;;12.10;;
68744;SDS011;73143;45.456;11.064;2023-12-14T08:12:12;16.60;;;11.60;;
68744;SDS011;73143;45.456;11.064;2023-12-14T08:14:50;21.00;;;12.80;;
68744;SDS011;73143;45.456;11.064;2023-12-14T08:17:28;19.60;;;12.60;;
68744;SDS011;73143;45.456;11.064;2023-12-14T08:20:08;24.70;;;12.00;;
68744;SDS011;73143;45.456;11.064;2023-12-14T08:22:47;22.90;;;12.90;;
68744;SDS011;73143;45.456;11.064;2023-12-14T08:25:24;17.60;;;11.60;;
68744;SDS011;73143;45.456;11.064;2023-12-14T08:28:02;24.00;;;12.20;;
68744;SDS011;73143;45.456;11.064;2023-12-14T08:30:39;23.10;;;12.60;;
68744;SDS011;73143;45.456;11.064;2023-12-14T08:33:17;25.90;;;11.30;;
68744;SDS011;73143;45.456;11.064;2023-12-14T08:35:56;18.40;;;11.10;;
68744;SDS011;73143;45.456;11.064;2023-12-14T08:38:33;16.70;;;10.70;;
68744;SDS011;73143;45.456;11.064;2023-12-14T08:41:13;17.00;;;10.60;;
68744;SDS011;73143;45.456;11.064;2023-12-14T08:43:49;15.20;;;10.20;;
68744;SDS011;73143;45.456;11.064;2023-12-14T08:46:28;15.80;;;10.10;;
68744;SDS011;73143;45.456;11.064;2023-12-14T08:49:13;15.80;;;10.10;;
68744;SDS011;73143;45.456;11.064;2023-12-14T08:51:52;17.90;;;11.40;;
68744;SDS011;73143;45.456;11.064;2023-12-14T08:54:29;15.80;;;10.70;;
68744;SDS011;73143;45.456;11.064;2023-12-14T08:57:06;13.70;;;9.00;;
68744;SDS011;73143;45.456;11.064;2023-12-14T08:59:43;15.30;;;10.20;;
68744;SDS011;73143;45.456;11.064;2023-12-14T09:02:20;12.10;;;8.80;;
68744;SDS011;73143;45.456;11.064;2023-12-14T09:04:58;14.00;;;9.40;;
68744;SDS011;73143;45.456;11.064;2023-12-14T09:07:34;12.30;;;8.70;;
68744;SDS011;73143;45.456;11.064;2023-12-14T09:10:16;15.80;;;9.90;;
68744;SDS011;73143;45.456;11.064;2023-12-14T09:12:54;13.90;;;9.70;;
68744;SDS011;73143;45.456;11.064;2023-12-14T09:15:32;13.80;;;9.90;;
68744;SDS011;73143;45.456;11.064;2023-12-14T09:18:10;16.90;;;10.70;;
68744;SDS011;73143;45.456;11.064;2023-12-14T09:23:38;13.00;;;9.20;;
68744;SDS011;73143;45.456;11.064;2023-12-14T09:26:15;15.00;;;10.70;;
68744;SDS011;73143;45.456;11.064;2023-12-14T09:28:53;14.90;;;10.60;;
68744;SDS011;73143;45.456;11.064;2023-12-14T09:31:31;14.40;;;10.90;;
68744;SDS011;73143;45.456;11.064;2023-12-14T09:34:08;15.80;;;10.70;;
68744;SDS011;73143;45.456;11.064;2023-12-14T09:36:45;14.70;;;9.60;;
68744;SDS011;73143;45.456;11.064;2023-12-14T09:39:26;17.50;;;11.40;;
68744;SDS011;73143;45.456;11.064;2023-12-14T09:42:06;14.70;;;10.30;;
68744;SDS011;73143;45.456;11.064;2023-12-14T09:44:44;16.00;;;10.90;;
68744;SDS011;73143;45.456;11.064;2023-12-14T09:47:21;15.90;;;10.40;;
68744;SDS011;73143;45.456;11.064;2023-12-14T09:50:00;18.30;;;10.90;;
68744;SDS011;73143;45.456;11.064;2023-12-14T09:52:38;15.70;;;10.30;;
68744;SDS011;73143;45.456;11.064;2023-12-14T09:55:17;16.10;;;10.70;;
68744;SDS011;73143;45.456;11.064;2023-12-14T09:57:54;16.00;;;10.10;;
68744;SDS011;73143;45.456;11.064;2023-12-14T10:00:39;15.40;;;10.70;;
68744;SDS011;73143;45.456;11.064;2023-12-14T10:03:24;12.80;;;9.70;;
68744;SDS011;73143;45.456;11.064;2023-12-14T10:06:04;12.70;;;9.20;;
68744;SDS011;73143;45.456;11.064;2023-12-14T10:08:42;14.00;;;9.90;;
68744;SDS011;73143;45.456;11.064;2023-12-14T10:11:31;15.70;;;10.50;;
68744;SDS011;73143;45.456;11.064;2023-12-14T10:14:22;16.50;;;9.20;;
68744;SDS011;73143;45.456;11.064;2023-12-14T10:17:00;15.30;;;9.90;;
68744;SDS011;73143;45.456;11.064;2023-12-14T10:19:51;16.60;;;10.30;;
68744;SDS011;73143;45.456;11.064;2023-12-14T10:22:30;12.30;;;9.50;;
68744;SDS011;73143;45.456;11.064;2023-12-14T10:25:10;15.30;;;10.40;;
68744;SDS011;73143;45.456;11.064;2023-12-14T10:27:48;13.20;;;9.10;;
68744;SDS011;73143;45.456;11.064;2023-12-14T10:30:26;15.70;;;10.60;;
68744;SDS011;73143;45.456;11.064;2023-12-14T10:33:07;13.60;;;9.60;;
68744;SDS011;73143;45.456;11.064;2023-12-14T10:35:46;16.30;;;10.90;;
68744;SDS011;73143;45.456;11.064;2023-12-14T10:38:26;14.60;;;10.70;;
68744;SDS011;73143;45.456;11.064;2023-12-14T10:41:07;15.00;;;10.30;;
68744;SDS011;73143;45.456;11.064;2023-12-14T10:43:47;16.30;;;11.80;;
68744;SDS011;73143;45.456;11.064;2023-12-14T10:46:47;18.30;;;12.70;;
68744;SDS011;73143;45.456;11.064;2023-12-14T10:49:28;19.30;;;13.20;;
68744;SDS011;73143;45.456;11.064;2023-12-14T10:52:07;18.40;;;12.50;;
68744;SDS011;73143;45.456;11.064;2023-12-14T10:54:47;19.50;;;13.60;;
68744;SDS011;73143;45.456;11.064;2023-12-14T10:57:30;18.90;;;13.30;;
68744;SDS011;73143;45.456;11.064;2023-12-14T11:00:12;16.00;;;12.00;;
68744;SDS011;73143;45.456;11.064;2023-12-14T11:02:54;20.60;;;14.40;;
68744;SDS011;73143;45.456;11.064;2023-12-14T11:05:31;20.40;;;13.20;;
68744;SDS011;73143;45.456;11.064;2023-12-14T11:08:08;20.80;;;14.60;;
68744;SDS011;73143;45.456;11.064;2023-12-14T11:10:54;20.60;;;15.20;;
68744;SDS011;73143;45.456;11.064;2023-12-14T11:13:43;23.70;;;16.10;;
68744;SDS011;73143;45.456;11.064;2023-12-14T11:16:22;23.00;;;15.20;;
68744;SDS011;73143;45.456;11.064;2023-12-14T11:22:31;20.90;;;14.60;;
68744;SDS011;73143;45.456;11.064;2023-12-14T11:25:10;21.30;;;15.80;;
68744;SDS011;73143;45.456;11.064;2023-12-14T11:27:48;20.90;;;15.20;;
68744;SDS011;73143;45.456;11.064;2023-12-14T11:30:27;23.00;;;16.00;;
68744;SDS011;73143;45.456;11.064;2023-12-14T11:33:23;19.70;;;14.70;;
68744;SDS011;73143;45.456;11.064;2023-12-14T11:36:00;21.10;;;15.10;;
68744;SDS011;73143;45.456;11.064;2023-12-14T11:38:38;21.20;;;15.30;;
68744;SDS011;73143;45.456;11.064;2023-12-14T11:41:15;22.50;;;16.40;;
68744;SDS011;73143;45.456;11.064;2023-12-14T11:43:51;25.80;;;17.50;;
68744;SDS011;73143;45.456;11.064;2023-12-14T11:46:29;23.00;;;16.70;;
68744;SDS011;73143;45.456;11.064;2023-12-14T11:49:07;23.10;;;16.30;;
68744;SDS011;73143;45.456;11.064;2023-12-14T11:51:47;25.50;;;18.10;;
68744;SDS011;73143;45.456;11.064;2023-12-14T11:54:29;26.10;;;18.10;;
68744;SDS011;73143;45.456;11.064;2023-12-14T11:57:07;24.00;;;16.10;;
68744;SDS011;73143;45.456;11.064;2023-12-14T11:59:47;22.40;;;15.90;;
68744;SDS011;73143;45.456;11.064;2023-12-14T12:02:28;23.90;;;16.60;;
68744;SDS011;73143;45.456;11.064;2023-12-14T12:05:07;24.70;;;17.30;;
68744;SDS011;73143;45.456;11.064;2023-12-14T12:07:50;24.30;;;16.60;;
68744;SDS011;73143;45.456;11.064;2023-12-14T12:10:33;24.00;;;16.90;;
68744;SDS011;73143;45.456;11.064;2023-12-14T12:13:14;25.20;;;16.30;;
68744;SDS011;73143;45.456;11.064;2023-12-14T12:15:53;25.70;;;17.10;;
68744;SDS011;73143;45.456;11.064;2023-12-14T12:18:30;20.30;;;15.10;;
68744;SDS011;73143;45.456;11.064;2023-12-14T12:21:11;23.90;;;16.70;;
68744;SDS011;73143;45.456;11.064;2023-12-14T12:23:48;24.90;;;17.40;;
68744;SDS011;73143;45.456;11.064;2023-12-14T12:26:25;24.90;;;17.70;;
68744;SDS011;73143;45.456;11.064;2023-12-14T12:29:03;21.50;;;16.50;;
68744;SDS011;73143;45.456;11.064;2023-12-14T12:31:41;27.30;;;16.80;;
68744;SDS011;73143;45.456;11.064;2023-12-14T12:34:19;27.90;;;17.70;;
68744;SDS011;73143;45.456;11.064;2023-12-14T12:36:57;24.40;;;18.10;;
68744;SDS011;73143;45.456;11.064;2023-12-14T12:39:34;26.10;;;18.30;;
68744;SDS011;73143;45.456;11.064;2023-12-14T12:42:12;26.80;;;19.00;;
68744;SDS011;73143;45.456;11.064;2023-12-14T12:44:50;26.60;;;18.50;;
68744;SDS011;73143;45.456;11.064;2023-12-14T12:47:27;28.10;;;20.50;;
68744;SDS011;73143;45.456;11.064;2023-12-14T12:50:07;29.40;;;20.50;;
68744;SDS011;73143;45.456;11.064;2023-12-14T12:52:46;27.10;;;20.30;;
68744;SDS011;73143;45.456;11.064;2023-12-14T12:55:23;27.80;;;19.00;;
68744;SDS011;73143;45.456;11.064;2023-12-14T12:57:59;28.20;;;18.30;;
68744;SDS011;73143;45.456;11.064;2023-12-14T13:00:38;31.20;;;19.50;;
68744;SDS011;73143;45.456;11.064;2023-12-14T13:03:15;32.50;;;20.40;;
68744;SDS011;73143;45.456;11.064;2023-12-14T13:05:52;32.30;;;19.90;;
68744;SDS011;73143;45.456;11.064;2023-12-14T13:08:29;29.00;;;20.10;;
68744;SDS011;73143;45.456;11.064;2023-12-14T13:11:07;30.30;;;21.60;;
68744;SDS011;73143;45.456;11.064;2023-12-14T13:13:44;29.30;;;20.00;;
68744;SDS011;73143;45.456;11.064;2023-12-14T13:16:21;31.70;;;21.10;;
68744;SDS011;73143;45.456;11.064;2023-12-14T13:19:02;31.20;;;19.60;;
68744;SDS011;73143;45.456;11.064;2023-12-14T13:21:38;32.20;;;21.80;;
68744;SDS011;73143;45.456;11.064;2023-12-14T13:24:14;29.70;;;19.50;;
68744;SDS011;73143;45.456;11.064;2023-12-14T13:26:52;31.00;;;20.30;;
68744;SDS011;73143;45.456;11.064;2023-12-14T13:29:29;28.00;;;20.40;;
68744;SDS011;73143;45.456;11.064;2023-12-14T13:32:07;29.60;;;20.60;;
68744;SDS011;73143;45.456;11.064;2023-12-14T13:34:45;34.00;;;21.30;;
68744;SDS011;73143;45.456;11.064;2023-12-14T13:37:22;29.50;;;21.70;;
68744;SDS011;73143;45.456;11.064;2023-12-14T13:39:59;31.70;;;21.50;;
68744;SDS011;73143;45.456;11.064;2023-12-14T13:42:37;29.00;;;19.40;;
68744;SDS011;73143;45.456;11.064;2023-12-14T13:45:30;28.40;;;20.50;;
68744;SDS011;73143;45.456;11.064;2023-12-14T13:48:11;32.90;;;21.30;;
68744;SDS011;73143;45.456;11.064;2023-12-14T13:50:48;29.60;;;19.60;;
68744;SDS011;73143;45.456;11.064;2023-12-14T13:53:25;28.80;;;20.60;;
68744;SDS011;73143;45.456;11.064;2023-12-14T13:56:03;29.20;;;21.50;;
68744;SDS011;73143;45.456;11.064;2023-12-14T13:58:42;34.00;;;21.40;;
68744;SDS011;73143;45.456;11.064;2023-12-14T14:01:19;30.30;;;20.70;;
68744;SDS011;73143;45.456;11.064;2023-12-14T14:03:56;31.80;;;22.60;;
68744;SDS011;73143;45.456;11.064;2023-12-14T14:06:33;33.60;;;22.00;;
68744;SDS011;73143;45.456;11.064;2023-12-14T14:09:10;32.30;;;22.30;;
68744;SDS011;73143;45.456;11.064;2023-12-14T14:11:47;29.60;;;21.40;;
68744;SDS011;73143;45.456;11.064;2023-12-14T14:14:28;28.10;;;20.30;;
68744;SDS011;73143;45.456;11.064;2023-12-14T14:17:08;31.10;;;21.90;;
68744;SDS011;73143;45.456;11.064;2023-12-14T14:19:44;31.30;;;21.30;;
68744;SDS011;73143;45.456;11.064;2023-12-14T14:22:20;33.40;;;21.80;;
68744;SDS011;73143;45.456;11.064;2023-12-14T14:24:57;30.70;;;21.20;;
68744;SDS011;73143;45.456;11.064;2023-12-14T14:27:34;34.20;;;23.80;;
68744;SDS011;73143;45.456;11.064;2023-12-14T14:30:15;29.60;;;21.10;;
68744;SDS011;73143;45.456;11.064;2023-12-14T14:32:54;29.40;;;20.90;;
68744;SDS011;73143;45.456;11.064;2023-12-14T14:35:31;34.00;;;22.50;;
68744;SDS011;73143;45.456;11.064;2023-12-14T14:38:09;31.90;;;21.30;;
68744;SDS011;73143;45.456;11.064;2023-12-14T14:40:46;33.20;;;22.60;;
68744;SDS011;73143;45.456;11.064;2023-12-14T14:43:23;31.70;;;21.80;;
68744;SDS011;73143;45.456;11.064;2023-12-14T14:46:00;28.80;;;20.10;;
68744;SDS011;73143;45.456;11.064;2023-12-14T14:48:37;34.00;;;21.70;;
68744;SDS011;73143;45.456;11.064;2023-12-14T14:51:15;31.90;;;22.10;;
68744;SDS011;73143;45.456;11.064;2023-12-14T14:53:53;34.10;;;20.90;;
68744;SDS011;73143;45.456;11.064;2023-12-14T14:56:30;38.90;;;21.60;;
68744;SDS011;73143;45.456;11.064;2023-12-14T14:59:07;39.50;;;21.70;;
68744;SDS011;73143;45.456;11.064;2023-12-14T15:01:47;42.10;;;21.60;;
68744;SDS011;73143;45.456;11.064;2023-12-14T15:04:24;31.50;;;20.70;;
68744;SDS011;73143;45.456;11.064;2023-12-14T15:07:02;63.30;;;21.30;;
68744;SDS011;73143;45.456;11.064;2023-12-14T15:09:39;53.20;;;20.10;;
68744;SDS011;73143;45.456;11.064;2023-12-14T15:12:16;45.70;;;20.00;;
68744;SDS011;73143;45.456;11.064;2023-12-14T15:14:54;46.60;;;19.70;;
68744;SDS011;73143;45.456;11.064;2023-12-14T15:17:31;42.70;;;19.10;;
68744;SDS011;73143;45.456;11.064;2023-12-14T15:20:11;54.40;;;20.40;;
68744;SDS011;73143;45.456;11.064;2023-12-14T15:22:49;37.10;;;19.20;;